Time;durP1;ratioP1;P1;durP2;ratioP2;P2;SDS_P1;SDS_P2;PMS_P1;PMS_P2;Temp;Humidity;BMP_temperature;BMP_pressure;BME280_temperature;BME280_humidity;BME280_pressure;Samples;Min_cycle;Max_cycle;Signal;HPM_P1;HPM_P2
2023/10/09 00:00:36;;;;;;;10.60;4.75;;;14.00;99.90;;;;;;5141888;27;20054;-58
2023/10/09 00:03:01;;;;;;;10.52;4.80;;;14.10;99.90;;;;;;5140126;27;20054;-56
2023/10/09 00:08:22;;;;;;;12.38;5.15;;;14.00;99.90;;;;;;5141026;27;20111;-57
2023/10/09 00:10:54;;;;;;;10.20;4.80;;;14.00;99.90;;;;;;5141158;27;20390;-57
2023/10/09 00:13:27;;;;;;;12.23;5.30;;;14.00;99.90;;;;;;5142013;27;20046;-57
2023/10/09 00:15:59;;;;;;;13.10;5.07;;;14.00;99.90;;;;;;5140429;27;20039;-57
2023/10/09 00:18:29;;;;;;;10.65;5.07;;;14.00;99.90;;;;;;5141999;27;20035;-57
2023/10/09 00:21:11;;;;;;;13.82;5.90;;;14.00;99.90;;;;;;5140786;27;20053;-56
2023/10/09 00:23:37;;;;;;;;;;;14.00;99.90;;;;;;5125011;28;20043;-56
2023/10/09 00:26:19;;;;;;;12.35;5.25;;;14.00;99.90;;;;;;5141534;27;19923;-56
2023/10/09 00:28:47;;;;;;;12.48;5.43;;;14.00;99.90;;;;;;5121309;28;20101;-57
2023/10/09 00:31:16;;;;;;;12.65;6.65;;;14.00;99.90;;;;;;5141976;28;20070;-56
2023/10/09 00:33:43;;;;;;;16.23;6.05;;;14.10;99.90;;;;;;5140602;28;20039;-56
2023/10/09 00:36:09;;;;;;;12.60;6.28;;;14.10;99.90;;;;;;5123277;28;20075;-56
2023/10/09 00:38:36;;;;;;;13.65;6.80;;;14.10;99.90;;;;;;5120731;28;20495;-55
2023/10/09 00:43:35;;;;;;;14.77;6.38;;;14.10;99.90;;;;;;5121157;28;20111;-57
2023/10/09 00:46:03;;;;;;;13.85;6.45;;;14.10;99.90;;;;;;5119456;28;20055;-56
2023/10/09 00:48:37;;;;;;;14.32;6.10;;;14.10;99.90;;;;;;5121082;28;20043;-56
2023/10/09 00:51:17;;;;;;;13.27;6.15;;;14.10;99.90;;;;;;5120500;28;20581;-56
2023/10/09 00:53:48;;;;;;;16.13;7.03;;;14.20;99.90;;;;;;5119678;28;20054;-56
2023/10/09 00:59:08;;;;;;;15.30;7.00;;;14.10;99.90;;;;;;5119089;28;20051;-56
2023/10/09 01:01:34;;;;;;;;;;;14.10;99.90;;;;;;5121169;28;20044;-56
2023/10/09 01:04:14;;;;;;;16.05;7.35;;;14.20;99.90;;;;;;5120248;28;19928;-56
2023/10/09 01:06:46;;;;;;;15.70;7.45;;;14.20;99.90;;;;;;5119434;28;20059;-56
2023/10/09 01:09:13;;;;;;;15.95;7.15;;;14.20;99.90;;;;;;5103159;28;20082;-56
2023/10/09 01:12:03;;;;;;;15.20;7.28;;;14.10;99.90;;;;;;5119158;28;20044;-56
2023/10/09 01:14:41;;;;;;;17.35;8.18;;;14.20;99.90;;;;;;5102106;28;20078;-56
2023/10/09 01:17:09;;;;;;;17.88;8.88;;;14.20;99.90;;;;;;5101867;28;20047;-56
2023/10/09 01:19:35;;;;;;;21.13;8.70;;;14.10;99.90;;;;;;5119505;28;20046;-57
2023/10/09 01:22:12;;;;;;;19.77;8.43;;;14.20;99.90;;;;;;5120694;28;20047;-56
2023/10/09 01:24:39;;;;;;;17.20;9.05;;;14.10;99.90;;;;;;5100657;28;20437;-57
2023/10/09 01:27:14;;;;;;;20.95;8.93;;;14.20;99.90;;;;;;5119910;28;20068;-56
2023/10/09 01:29:41;;;;;;;22.15;10.05;;;14.10;99.90;;;;;;5119813;28;20031;-56
2023/10/09 01:32:16;;;;;;;19.25;9.45;;;14.10;99.90;;;;;;5119762;28;20031;-56
2023/10/09 01:34:48;;;;;;;21.25;10.60;;;14.20;99.90;;;;;;5129485;27;20467;-57
2023/10/09 01:37:26;;;;;;;;;;;14.10;99.90;;;;;;5143477;27;20043;-58
2023/10/09 01:40:22;;;;;;;26.95;11.13;;;14.10;99.90;;;;;;5144653;27;20457;-58
2023/10/09 01:42:45;;;;;;;29.38;11.20;;;14.00;99.90;;;;;;5144236;27;20043;-57
2023/10/09 01:45:41;;;;;;;24.83;11.20;;;14.10;99.90;;;;;;5143296;27;20069;-57
2023/10/09 01:47:58;;;;;;;26.23;12.13;;;13.90;99.90;;;;;;5144091;27;20058;-57
2023/10/09 01:50:35;;;;;;;27.20;13.07;;;14.00;99.90;;;;;;5141387;27;20522;-58
2023/10/09 01:53:02;;;;;;;29.92;12.82;;;14.10;99.90;;;;;;5144490;27;20107;-58
2023/10/09 01:55:34;;;;;;;27.88;13.43;;;14.00;99.90;;;;;;5143829;27;20049;-57
2023/10/09 01:58:05;;;;;;;24.10;12.77;;;14.10;99.90;;;;;;5143217;27;20047;-57
2023/10/09 02:00:35;;;;;;;30.30;13.73;;;14.00;99.90;;;;;;5144352;27;20463;-57
2023/10/09 02:03:05;;;;;;;33.58;14.10;;;14.00;99.90;;;;;;5142795;27;20047;-57
2023/10/09 02:05:33;;;;;;;30.58;13.98;;;14.10;99.90;;;;;;5125779;27;20541;-57
2023/10/09 02:08:02;;;;;;;35.28;15.15;;;14.00;99.90;;;;;;5142966;27;20506;-57
2023/10/09 02:12:58;;;;;;;31.88;15.23;;;14.10;99.90;;;;;;5144149;27;20255;-57
2023/10/09 02:18:26;;;;;;;32.85;15.23;;;14.00;99.90;;;;;;5144234;27;20059;-57
2023/10/09 02:21:12;;;;;;;36.70;16.02;;;14.10;99.90;;;;;;5142937;27;20043;-57
2023/10/09 02:26:08;;;;;;;31.77;15.63;;;14.10;99.90;;;;;;5143580;27;20043;-57
2023/10/09 02:28:35;;;;;;;38.60;16.73;;;14.00;99.90;;;;;;5123557;27;20050;-57
2023/10/09 02:31:11;;;;;;;36.90;16.60;;;14.10;99.90;;;;;;5143777;27;20040;-57
2023/10/09 02:33:39;;;;;;;33.05;15.88;;;14.00;99.90;;;;;;5142456;27;20103;-56
2023/10/09 02:36:06;;;;;;;32.88;16.83;;;14.00;99.90;;;;;;5107376;28;20502;-57
2023/10/09 02:38:41;;;;;;;36.72;18.35;;;14.00;99.90;;;;;;5122987;28;20406;-57
2023/10/09 02:43:55;;;;;;;41.28;19.50;;;14.00;99.90;;;;;;5123231;28;20118;-58
2023/10/09 02:46:28;;;;;;;41.88;19.98;;;14.10;99.90;;;;;;5121289;28;20055;-58
2023/10/09 02:48:57;;;;;;;39.80;18.83;;;14.10;99.90;;;;;;5122493;28;20035;-58
2023/10/09 02:53:52;;;;;;;40.40;19.45;;;14.10;99.90;;;;;;5121403;28;20048;-58
2023/10/09 02:56:24;;;;;;;47.05;20.63;;;14.20;99.90;;;;;;5122640;28;20224;-58
2023/10/09 02:59:08;;;;;;;45.50;20.77;;;14.00;99.90;;;;;;5102458;28;20051;-58
2023/10/09 03:01:40;;;;;;;41.92;22.02;;;14.20;99.90;;;;;;5122520;28;20048;-58
2023/10/09 03:04:06;;;;;;;;;;;14.10;99.90;;;;;;5122802;28;20459;-58
2023/10/09 03:06:40;;;;;;;45.13;21.77;;;14.10;99.90;;;;;;5121383;28;19930;-58
2023/10/09 03:09:16;;;;;;;46.95;21.95;;;14.30;99.90;;;;;;5122712;28;20071;-58
2023/10/09 03:11:53;;;;;;;48.90;24.70;;;14.30;99.90;;;;;;5102320;28;20143;-58
2023/10/09 03:14:20;;;;;;;54.45;23.48;;;14.30;99.90;;;;;;5122424;28;20044;-58
2023/10/09 03:16:50;;;;;;;44.65;24.08;;;14.30;99.90;;;;;;5121691;28;20035;-58
2023/10/09 03:19:16;;;;;;;43.35;23.27;;;14.30;99.90;;;;;;5121199;28;20050;-58
2023/10/09 03:21:42;;;;;;;55.75;25.67;;;14.40;99.90;;;;;;5122070;28;20069;-58
2023/10/09 03:24:08;;;;;;;46.65;22.95;;;14.60;99.90;;;;;;5120699;28;20040;-58
2023/10/09 03:26:34;;;;;;;52.20;25.02;;;14.80;99.90;;;;;;5121741;28;20047;-58
2023/10/09 03:29:06;;;;;;;48.97;25.77;;;14.70;99.90;;;;;;5102183;28;20146;-58
2023/10/09 03:31:33;;;;;;;46.08;23.40;;;14.70;99.90;;;;;;5122011;28;20061;-58
2023/10/09 03:33:59;;;;;;;43.55;23.25;;;14.90;99.90;;;;;;5121680;28;20040;-58
2023/10/09 03:36:30;;;;;;;45.65;24.48;;;14.80;99.90;;;;;;5140866;27;20421;-58
2023/10/09 03:38:57;;;;;;;50.85;26.00;;;15.10;99.90;;;;;;5142611;27;20073;-58
2023/10/09 03:41:26;;;;;;;46.53;24.33;;;15.00;99.90;;;;;;5140933;27;20055;-58
2023/10/09 03:43:56;;;;;;;46.55;23.60;;;15.00;99.90;;;;;;5142727;27;20042;-58
2023/10/09 03:46:26;;;;;;;44.03;23.88;;;15.00;99.90;;;;;;5122325;27;20083;-57
2023/10/09 03:48:57;;;;;;;49.42;25.15;;;15.00;99.90;;;;;;5142068;27;20398;-57
2023/10/09 03:51:23;;;;;;;40.63;21.93;;;15.20;99.90;;;;;;5142093;27;20043;-58
2023/10/09 03:53:50;;;;;;;44.53;22.90;;;15.10;99.90;;;;;;5140873;27;20294;-58
2023/10/09 03:56:17;;;;;;;41.15;23.00;;;15.30;99.90;;;;;;5141768;27;20146;-58
2023/10/09 03:58:48;;;;;;;44.22;22.98;;;15.30;99.90;;;;;;5140562;27;20046;-58
2023/10/09 04:01:28;;;;;;;47.20;24.33;;;15.10;99.90;;;;;;5142315;27;20079;-58
2023/10/09 04:03:55;;;;;;;42.35;23.08;;;15.30;99.90;;;;;;5141480;27;20067;-56
2023/10/09 04:06:22;;;;;;;40.97;22.40;;;15.20;99.90;;;;;;5122373;27;20417;-58
2023/10/09 04:08:50;;;;;;;41.78;22.80;;;15.20;99.90;;;;;;5141911;27;20039;-58
2023/10/09 04:11:16;;;;;;;42.40;22.38;;;15.10;99.90;;;;;;5139674;27;20422;-58
2023/10/09 04:13:45;;;;;;;42.85;22.85;;;15.20;99.90;;;;;;5142433;27;20043;-58
2023/10/09 04:16:34;;;;;;;41.13;23.00;;;15.30;99.90;;;;;;5140567;27;20642;-58
2023/10/09 04:19:11;;;;;;;38.63;22.10;;;15.10;99.90;;;;;;5122716;27;20543;-57
2023/10/09 04:21:37;;;;;;;44.25;21.38;;;15.10;99.90;;;;;;5141518;27;20108;-57
2023/10/09 04:26:45;;;;;;;40.78;22.45;;;15.20;99.90;;;;;;5141729;27;20042;-58
2023/10/09 04:29:26;;;;;;;37.25;21.27;;;15.30;99.90;;;;;;5140208;28;20051;-58
2023/10/09 04:31:53;;;;;;;35.53;20.85;;;15.30;99.90;;;;;;5141236;28;20039;-58
2023/10/09 04:34:22;;;;;;;38.63;20.17;;;15.30;99.90;;;;;;5138979;28;20054;-58
2023/10/09 04:36:56;;;;;;;41.30;20.42;;;15.20;99.90;;;;;;5119497;28;20054;-58
2023/10/09 04:47:37;;;;;;;37.33;18.67;;;15.10;99.90;;;;;;5120933;28;20721;-58
2023/10/09 04:52:52;;;;;;;33.33;17.60;;;15.20;99.90;;;;;;5120659;28;20379;-58
2023/10/09 04:55:19;;;;;;;35.20;17.40;;;15.30;99.90;;;;;;5120164;28;20095;-58
2023/10/09 05:05:58;;;;;;;29.23;15.38;;;15.20;99.90;;;;;;5081473;28;20246;-58
2023/10/09 05:16:26;;;;;;;26.58;15.80;;;15.50;99.90;;;;;;5123144;28;20055;-58
2023/10/09 05:18:57;;;;;;;28.30;14.60;;;15.40;99.90;;;;;;5105654;28;20047;-59
2023/10/09 05:37:32;;;;;;;25.02;13.27;;;15.30;99.90;;;;;;5143089;27;20043;-58
2023/10/09 05:47:53;;;;;;;24.52;12.00;;;15.60;99.90;;;;;;5144696;27;20106;-59
2023/10/09 06:03:45;;;;;;;24.88;11.38;;;15.60;99.90;;;;;;5143326;27;20161;-59
2023/10/09 06:06:18;;;;;;;21.08;10.48;;;15.50;99.90;;;;;;5125127;27;20040;-58
2023/10/09 06:16:41;;;;;;;22.40;10.60;;;15.80;99.90;;;;;;5139257;27;20050;-58
2023/10/09 06:19:12;;;;;;;31.05;11.32;;;15.60;99.90;;;;;;5138764;27;20074;-58
2023/10/09 06:24:33;;;;;;;24.00;10.73;;;15.60;99.90;;;;;;5138753;27;20050;-58
2023/10/09 06:29:37;;;;;;;24.23;10.52;;;15.70;99.90;;;;;;5138827;27;20047;-59
2023/10/09 06:34:46;;;;;;;22.30;9.02;;;15.80;99.90;;;;;;5134348;27;20275;-58
2023/10/09 06:40:10;;;;;;;23.70;9.13;;;15.80;99.90;;;;;;5119155;28;20062;-57
2023/10/09 06:45:14;;;;;;;17.20;8.98;;;15.50;99.90;;;;;;5122736;27;20056;-59
2023/10/09 06:47:41;;;;;;;22.50;9.15;;;15.40;99.90;;;;;;5112742;27;20050;-60
2023/10/09 06:51:07;;;;;;;29.88;10.15;;;15.70;99.90;;;;;;5125989;27;20047;-60
2023/10/09 06:55:50;;;;;;;23.45;9.60;;;15.70;99.90;;;;;;5129789;27;20100;-59
2023/10/09 06:58:23;;;;;;;24.17;10.35;;;15.40;99.90;;;;;;5119635;27;20055;-60
2023/10/09 07:03:32;;;;;;;24.92;9.88;;;15.60;99.90;;;;;;5137987;27;20051;-59
2023/10/09 07:14:32;;;;;;;23.00;10.13;;;15.50;99.90;;;;;;5138981;27;20072;-59
2023/10/09 07:33:16;;;;;;;22.25;9.25;;;15.50;99.90;;;;;;5136863;27;20055;-59
2023/10/09 07:35:47;;;;;;;18.73;8.63;;;15.50;99.90;;;;;;5124415;27;20422;-59
2023/10/09 07:38:19;;;;;;;18.65;9.70;;;15.50;99.90;;;;;;5117739;28;20051;-60
2023/10/09 07:43:39;;;;;;;26.42;9.38;;;15.80;99.90;;;;;;5093362;28;20415;-60
2023/10/09 07:48:56;;;;;;;20.88;9.65;;;15.80;99.90;;;;;;5117252;28;20051;-61
2023/10/09 07:51:30;;;;;;;23.42;9.70;;;15.60;99.90;;;;;;5118022;28;20140;-60
2023/10/09 07:53:57;;;;;;;22.55;9.68;;;15.80;99.90;;;;;;5116357;28;20122;-60
2023/10/09 07:56:30;;;;;;;20.05;9.38;;;15.60;99.90;;;;;;5117425;28;20067;-59
2023/10/09 07:59:00;;;;;;;24.05;9.15;;;15.50;99.90;;;;;;5116169;28;20051;-60
2023/10/09 08:04:01;;;;;;;18.77;9.15;;;15.80;99.90;;;;;;5117235;28;20047;-59
2023/10/09 08:06:47;;;;;;;26.67;9.98;;;15.40;99.90;;;;;;5116107;28;20085;-59
2023/10/09 08:12:13;;;;;;;18.65;9.00;;;15.60;99.90;;;;;;5116308;28;20059;-59
2023/10/09 08:14:45;;;;;;;16.73;9.40;;;15.80;99.90;;;;;;5116917;28;20043;-59
2023/10/09 08:17:15;;;;;;;23.50;9.77;;;15.80;99.90;;;;;;5117689;28;20042;-58
2023/10/09 08:19:54;;;;;;;24.23;9.68;;;15.90;99.90;;;;;;5097209;28;20479;-59
2023/10/09 08:24:56;;;;;;;24.88;9.73;;;15.90;99.90;;;;;;5116467;28;20496;-59
2023/10/09 08:33:40;;;;;;;24.73;9.63;;;15.80;99.90;;;;;;5115394;28;20095;-62
2023/10/09 08:35:47;;;;;;;26.30;8.75;;;15.60;99.90;;;;;;5129602;28;20047;-62
2023/10/09 08:38:14;;;;;;;26.67;9.60;;;15.80;99.90;;;;;;5129796;28;20468;-60
2023/10/09 08:40:46;;;;;;;24.08;9.40;;;15.70;99.90;;;;;;5124212;28;20106;-60
2023/10/09 08:43:19;;;;;;;27.65;9.35;;;15.70;99.90;;;;;;5110652;28;20561;-59
2023/10/09 08:45:46;;;;;;;27.10;10.20;;;15.90;99.90;;;;;;5128602;27;20028;-59
2023/10/09 08:48:15;;;;;;;25.27;9.25;;;16.10;99.90;;;;;;5114304;27;20054;-59
2023/10/09 08:50:50;;;;;;;24.25;9.77;;;15.70;99.90;;;;;;5129783;27;20043;-59
2023/10/09 08:53:17;;;;;;;24.65;9.07;;;15.90;99.90;;;;;;5120474;27;20047;-60
2023/10/09 08:55:43;;;;;;;24.85;9.55;;;16.00;99.90;;;;;;5141113;27;20035;-59
2023/10/09 08:58:20;;;;;;;22.92;9.07;;;15.80;99.90;;;;;;5140396;27;20047;-59
2023/10/09 09:00:47;;;;;;;25.90;9.65;;;16.10;99.90;;;;;;5142108;27;20051;-59
2023/10/09 09:03:18;;;;;;;22.45;8.65;;;16.10;99.90;;;;;;5140634;27;20046;-59
2023/10/09 09:05:51;;;;;;;26.90;8.77;;;16.20;99.90;;;;;;5141260;27;20035;-58
2023/10/09 09:08:31;;;;;;;19.58;8.98;;;16.10;99.90;;;;;;5141096;27;20047;-59
2023/10/09 09:11:12;;;;;;;18.98;8.90;;;15.80;99.90;;;;;;5140509;27;20091;-59
2023/10/09 09:14:06;;;;;;;21.73;9.10;;;16.20;99.90;;;;;;5142353;27;20046;-59
2023/10/09 09:16:35;;;;;;;30.00;9.45;;;16.20;99.90;;;;;;5118915;27;20039;-58
2023/10/09 09:21:39;;;;;;;20.75;8.50;;;16.10;99.90;;;;;;5124481;28;20047;-59
2023/10/09 09:26:45;;;;;;;25.33;9.40;;;16.30;99.90;;;;;;5123949;28;20108;-60
2023/10/09 09:29:18;;;;;;;24.17;8.80;;;15.80;99.90;;;;;;5123249;28;20073;-60
2023/10/09 09:31:55;;;;;;;21.13;9.30;;;16.30;99.90;;;;;;5123831;28;20043;-60
2023/10/09 09:34:25;;;;;;;20.67;8.52;;;16.40;99.90;;;;;;5127319;27;20099;-59
2023/10/09 09:36:56;;;;;;;21.77;8.48;;;16.00;99.90;;;;;;5142912;27;20063;-60
2023/10/09 09:39:27;;;;;;;22.38;7.90;;;15.90;99.90;;;;;;5145071;27;20054;-60
2023/10/09 09:42:13;;;;;;;22.90;9.10;;;16.00;99.90;;;;;;5143527;27;20053;-59
2023/10/09 09:44:46;;;;;;;20.42;8.40;;;16.00;99.90;;;;;;5144075;27;20047;-58
2023/10/09 09:47:25;;;;;;;18.75;8.15;;;16.10;99.90;;;;;;5144349;27;20050;-58
2023/10/09 09:49:59;;;;;;;20.23;8.70;;;16.30;99.90;;;;;;5126354;27;20054;-58
2023/10/09 09:52:40;;;;;;;21.48;8.10;;;16.10;99.90;;;;;;5144695;27;20043;-59
2023/10/09 09:55:17;;;;;;;21.38;7.75;;;16.20;99.90;;;;;;5142998;27;20065;-58
2023/10/09 09:57:45;;;;;;;16.23;7.05;;;16.30;99.90;;;;;;5142798;27;20054;-58
2023/10/09 10:00:27;;;;;;;18.92;7.57;;;16.50;99.90;;;;;;5144615;27;20047;-58
2023/10/09 10:02:57;;;;;;;17.38;6.63;;;16.20;99.90;;;;;;5126705;27;20441;-58
2023/10/09 10:05:29;;;;;;;20.75;7.45;;;16.10;99.90;;;;;;5144687;27;20043;-59
2023/10/09 10:07:58;;;;;;;25.73;8.10;;;16.50;99.90;;;;;;5141850;27;20054;-58
2023/10/09 10:10:34;;;;;;;20.33;6.97;;;16.10;99.90;;;;;;5115803;28;20463;-58
2023/10/09 10:13:01;;;;;;;17.42;7.43;;;16.50;99.90;;;;;;5105385;28;20052;-58
2023/10/09 10:15:56;;;;;;;20.08;7.55;;;16.40;99.90;;;;;;5121912;28;20044;-58
2023/10/09 10:18:23;;;;;;;18.13;7.57;;;16.50;99.90;;;;;;5104991;28;20388;-58
2023/10/09 10:21:33;;;;;;;22.95;8.85;;;16.60;99.90;;;;;;5121998;27;20051;-58
2023/10/09 10:24:05;;;;;;;19.17;7.65;;;16.20;99.90;;;;;;5141264;27;20047;-57
2023/10/09 10:26:33;;;;;;;20.27;7.65;;;16.60;99.90;;;;;;5122875;27;20095;-58
2023/10/09 10:29:22;;;;;;;19.88;7.93;;;16.60;99.90;;;;;;5120979;27;20049;-57
2023/10/09 10:32:08;;;;;;;18.30;8.20;;;16.30;99.90;;;;;;5143222;27;20054;-58
2023/10/09 10:34:46;;;;;;;21.40;7.20;;;16.70;99.90;;;;;;5144050;27;20042;-59
2023/10/09 10:37:13;;;;;;;19.35;7.50;;;16.40;99.90;;;;;;5142007;27;20050;-58
2023/10/09 10:40:13;;;;;;;22.25;7.75;;;16.30;99.90;;;;;;5125263;27;20529;-58
2023/10/09 10:43:05;;;;;;;19.42;7.38;;;16.60;99.90;;;;;;5143334;27;20043;-59
2023/10/09 10:45:34;;;;;;;21.35;7.78;;;16.60;99.90;;;;;;5141661;27;20039;-58
2023/10/09 10:48:06;;;;;;;22.27;7.13;;;16.60;99.90;;;;;;5125234;27;20035;-58
2023/10/09 10:53:19;;;;;;;19.10;7.28;;;16.70;99.90;;;;;;5119522;27;20055;-58
2023/10/09 11:01:49;;;;;;;20.85;6.88;;;16.40;99.90;;;;;;5139045;27;20040;-58
2023/10/09 11:04:24;;;;;;;23.95;7.03;;;16.30;99.90;;;;;;5119047;28;20043;-58
2023/10/09 11:07:00;;;;;;;19.95;6.85;;;16.50;99.90;;;;;;5100769;28;20048;-59
2023/10/09 11:09:35;;;;;;;16.90;7.38;;;16.60;99.90;;;;;;5122699;28;20051;-58
2023/10/09 11:12:21;;;;;;;15.35;5.40;;;16.40;99.90;;;;;;5109743;27;20078;-58
2023/10/09 11:15:05;;;;;;;14.00;5.22;;;16.20;99.90;;;;;;5141237;27;20055;-59
2023/10/09 11:17:32;;;;;;;13.90;5.63;;;16.10;99.90;;;;;;5124168;27;20036;-58
2023/10/09 11:20:22;;;;;;;19.10;5.30;;;16.20;99.90;;;;;;5141334;27;20055;-59
2023/10/09 11:23:05;;;;;;;18.65;5.32;;;16.00;99.90;;;;;;5142543;27;20051;-58
2023/10/09 11:25:31;;;;;;;14.80;5.28;;;16.00;99.90;;;;;;5127109;27;20062;-58
2023/10/09 11:27:56;;;;;;;15.32;5.55;;;16.20;99.90;;;;;;5122447;27;20046;-58
2023/10/09 11:30:32;;;;;;;14.68;4.93;;;16.00;99.90;;;;;;5142928;27;20051;-58
2023/10/09 11:33:14;;;;;;;15.50;5.15;;;16.20;99.90;;;;;;5140830;27;20045;-58
2023/10/09 11:35:42;;;;;;;12.15;5.32;;;16.00;99.90;;;;;;5110931;28;20047;-59
2023/10/09 11:38:21;;;;;;;16.65;5.25;;;16.00;99.90;;;;;;5121377;28;20608;-58
2023/10/09 11:43:51;;;;;;;17.67;5.55;;;16.10;99.90;;;;;;5122105;28;20130;-58
2023/10/09 11:46:36;;;;;;;13.80;5.95;;;16.10;99.90;;;;;;5102045;28;20511;-58
2023/10/09 11:49:26;;;;;;;14.40;4.68;;;16.40;99.90;;;;;;5101865;28;20104;-58
2023/10/09 11:54:50;;;;;;;13.35;5.13;;;16.30;99.90;;;;;;5074860;28;20047;-58
2023/10/09 11:57:17;;;;;;;11.13;4.45;;;16.50;99.90;;;;;;5120884;28;20048;-58
2023/10/09 11:59:43;;;;;;;13.93;3.83;;;16.60;99.90;;;;;;5121395;28;20052;-58
2023/10/09 12:02:12;;;;;;;12.90;5.18;;;16.50;99.90;;;;;;5120238;28;20128;-59
2023/10/09 12:04:44;;;;;;;13.00;3.67;;;16.40;99.90;;;;;;5121478;28;20095;-59
2023/10/09 12:07:10;;;;;;;13.27;4.80;;;16.50;99.90;;;;;;5101671;28;20050;-58
2023/10/09 12:09:39;;;;;;;14.38;4.50;;;16.40;99.90;;;;;;5121708;28;20489;-58
2023/10/09 12:12:10;;;;;;;16.55;4.85;;;16.60;99.90;;;;;;5120496;28;20058;-58
2023/10/09 12:14:37;;;;;;;11.82;4.18;;;16.50;99.90;;;;;;5120881;28;20043;-58
2023/10/09 12:17:07;;;;;;;13.93;4.82;;;16.50;99.90;;;;;;5120915;28;20069;-58
2023/10/09 12:19:38;;;;;;;12.07;4.80;;;16.60;99.90;;;;;;5119937;28;20047;-58
2023/10/09 12:22:05;;;;;;;10.25;4.05;;;16.40;99.90;;;;;;5121632;28;20057;-58
2023/10/09 12:24:33;;;;;;;12.18;3.90;;;16.50;99.90;;;;;;5100836;28;20078;-59
2023/10/09 12:26:59;;;;;;;10.73;4.35;;;16.40;99.90;;;;;;5124580;27;20082;-58
2023/10/09 12:29:30;;;;;;;9.38;4.60;;;16.50;99.90;;;;;;5141028;27;20073;-58
2023/10/09 12:31:58;;;;;;;12.00;3.95;;;16.50;99.90;;;;;;5140445;28;20055;-58
2023/10/09 12:34:27;;;;;;;13.35;4.50;;;16.60;99.90;;;;;;5138567;28;20063;-58
2023/10/09 12:36:54;;;;;;;14.43;4.60;;;16.60;99.90;;;;;;5119664;28;20460;-58
2023/10/09 12:39:21;;;;;;;10.63;4.30;;;16.60;99.90;;;;;;5103103;28;20035;-58
2023/10/09 12:41:48;;;;;;;14.05;4.32;;;16.50;99.90;;;;;;5129679;28;20046;-58
2023/10/09 12:44:18;;;;;;;9.88;3.88;;;16.60;99.90;;;;;;5141225;28;20456;-58
2023/10/09 12:46:54;;;;;;;15.15;4.57;;;16.60;99.90;;;;;;5141095;28;20513;-57
2023/10/09 12:49:27;;;;;;;12.80;4.18;;;16.60;99.90;;;;;;5140487;28;20043;-58
2023/10/09 12:51:53;;;;;;;14.85;4.28;;;16.70;99.90;;;;;;5141949;28;20039;-58
2023/10/09 12:54:28;;;;;;;13.20;4.22;;;16.70;99.90;;;;;;5139686;28;20090;-58
2023/10/09 12:56:59;;;;;;;10.65;3.78;;;16.70;99.90;;;;;;5140856;28;20467;-58
2023/10/09 12:59:24;;;;;;;12.88;3.83;;;16.70;99.90;;;;;;5140550;28;20411;-58
2023/10/09 13:01:57;;;;;;;9.25;3.60;;;16.70;99.90;;;;;;5140336;28;20726;-58
2023/10/09 13:04:23;;;;;;;9.75;3.80;;;16.70;99.90;;;;;;5141588;28;20059;-58
2023/10/09 13:06:54;;;;;;;12.40;3.83;;;16.80;99.90;;;;;;5139627;28;20744;-58
2023/10/09 13:09:35;;;;;;;13.95;3.97;;;16.90;99.90;;;;;;5123272;28;20074;-58
2023/10/09 13:12:01;;;;;;;12.80;4.07;;;16.80;99.90;;;;;;5140231;28;20448;-58
2023/10/09 13:14:27;;;;;;;10.88;3.92;;;16.80;99.90;;;;;;5141202;28;20038;-58
2023/10/09 13:16:53;;;;;;;12.45;3.88;;;16.80;99.90;;;;;;5140752;28;20043;-58
2023/10/09 13:19:19;;;;;;;10.95;4.30;;;16.80;99.90;;;;;;5139270;28;20047;-55
2023/10/09 13:21:46;;;;;;;13.63;3.40;;;16.90;99.90;;;;;;5141334;28;20075;-58
2023/10/09 13:24:20;;;;;;;11.88;3.92;;;16.80;99.90;;;;;;5139019;28;20091;-58
2023/10/09 13:26:46;;;;;;;10.30;3.88;;;16.80;99.90;;;;;;5140571;28;20043;-57
2023/10/09 13:29:13;;;;;;;11.35;3.92;;;16.80;99.90;;;;;;5118703;28;20048;-59
2023/10/09 13:31:46;;;;;;;13.98;3.72;;;16.80;99.90;;;;;;5123645;28;20068;-58
2023/10/09 13:34:14;;;;;;;11.15;3.75;;;16.70;99.90;;;;;;5111750;28;20063;-58
2023/10/09 13:36:49;;;;;;;12.73;3.90;;;16.70;99.90;;;;;;5110682;28;20128;-59
2023/10/09 13:39:30;;;;;;;12.88;3.70;;;16.80;99.90;;;;;;5111889;28;20039;-58
2023/10/09 13:41:57;;;;;;;13.68;4.25;;;16.80;99.90;;;;;;5110890;28;20473;-58
2023/10/09 13:44:30;;;;;;;13.45;3.90;;;16.80;99.90;;;;;;5111285;28;20067;-58
2023/10/09 13:46:57;;;;;;;13.55;3.90;;;16.70;99.90;;;;;;5111179;28;20079;-58
2023/10/09 13:49:23;;;;;;;12.30;3.85;;;16.70;99.90;;;;;;5109196;28;20050;-58
2023/10/09 13:51:56;;;;;;;10.07;4.13;;;16.70;99.90;;;;;;5111998;28;20572;-58
2023/10/09 13:54:39;;;;;;;13.88;4.10;;;16.80;99.90;;;;;;5110122;28;20031;-58
2023/10/09 13:57:06;;;;;;;10.30;3.38;;;16.70;99.90;;;;;;5111168;28;20047;-58
2023/10/09 13:59:34;;;;;;;8.27;2.75;;;16.50;99.90;;;;;;5111057;28;20375;-57
2023/10/09 14:02:02;;;;;;;11.07;3.25;;;16.40;99.90;;;;;;5110270;28;20055;-58
2023/10/09 14:04:28;;;;;;;13.63;3.08;;;16.30;99.90;;;;;;5111284;28;20043;-58
2023/10/09 14:06:59;;;;;;;11.38;3.10;;;16.30;99.90;;;;;;5109634;28;20092;-58
2023/10/09 14:09:32;;;;;;;11.68;3.00;;;16.30;99.90;;;;;;5112095;28;20069;-58
2023/10/09 14:12:10;;;;;;;13.68;3.42;;;16.40;99.90;;;;;;5110384;28;20046;-59
2023/10/09 14:14:46;;;;;;;11.80;3.13;;;16.40;99.90;;;;;;5109973;28;20043;-58
2023/10/09 14:17:13;;;;;;;9.50;3.38;;;16.40;99.90;;;;;;5110872;28;20035;-58
2023/10/09 14:19:49;;;;;;;12.73;3.28;;;16.40;99.90;;;;;;5108725;28;20542;-58
2023/10/09 14:22:19;;;;;;;11.57;3.53;;;16.40;99.90;;;;;;5110932;28;20039;-58
2023/10/09 14:24:47;;;;;;;10.20;3.83;;;16.50;99.90;;;;;;5109496;28;20035;-57
2023/10/09 14:27:19;;;;;;;14.77;3.70;;;16.50;99.90;;;;;;5110336;28;20059;-58
2023/10/09 14:29:45;;;;;;;14.73;3.35;;;16.50;99.90;;;;;;5128918;27;20055;-58
2023/10/09 14:32:14;;;;;;;12.52;4.05;;;16.70;99.90;;;;;;5111247;27;20122;-58
2023/10/09 14:34:49;;;;;;;11.43;3.55;;;16.50;99.90;;;;;;5131059;27;20031;-58
2023/10/09 14:37:19;;;;;;;16.00;3.40;;;16.50;99.90;;;;;;5129815;27;20067;-58
2023/10/09 14:39:48;;;;;;;10.68;3.10;;;16.50;99.90;;;;;;5130253;27;20054;-58
2023/10/09 14:42:15;;;;;;;10.75;3.35;;;16.60;99.90;;;;;;5130672;27;20582;-58
2023/10/09 14:44:41;;;;;;;12.23;2.95;;;16.50;99.90;;;;;;5130538;27;20039;-59
2023/10/09 14:47:07;;;;;;;9.70;3.00;;;16.50;99.90;;;;;;5131049;27;20538;-58
2023/10/09 14:49:38;;;;;;;10.73;3.17;;;16.60;99.90;;;;;;5129528;27;20563;-58
2023/10/09 14:52:08;;;;;;;11.85;3.28;;;16.60;99.90;;;;;;5131060;27;21485;-58
2023/10/09 14:54:35;;;;;;;11.63;1.90;;;16.50;99.90;;;;;;5111366;27;20039;-58
2023/10/09 14:57:00;;;;;;;13.13;2.80;;;16.60;99.90;;;;;;5129604;27;20055;-58
2023/10/09 14:59:26;;;;;;;12.18;2.47;;;16.50;99.90;;;;;;5130683;27;20096;-58
2023/10/09 15:01:53;;;;;;;9.45;2.50;;;16.50;99.90;;;;;;5129801;27;20043;-59
2023/10/09 15:04:19;;;;;;;13.35;2.72;;;16.50;99.90;;;;;;5130806;27;20446;-58
2023/10/09 15:06:49;;;;;;;13.00;2.97;;;16.50;99.90;;;;;;5129508;27;20616;-58
2023/10/09 15:09:28;;;;;;;9.57;2.47;;;16.40;99.90;;;;;;5131125;27;20465;-59
2023/10/09 15:11:54;;;;;;;8.20;2.53;;;16.50;99.90;;;;;;5129627;27;20058;-58
2023/10/09 15:14:20;;;;;;;11.77;2.60;;;16.50;99.90;;;;;;5130042;27;20039;-59
2023/10/09 15:16:47;;;;;;;10.63;2.30;;;16.40;99.90;;;;;;5130459;27;20055;-58
2023/10/09 15:19:13;;;;;;;10.60;3.15;;;16.50;99.90;;;;;;5110623;27;20047;-58
2023/10/09 15:21:43;;;;;;;10.05;2.65;;;16.50;99.90;;;;;;5130685;27;20043;-58
2023/10/09 15:24:19;;;;;;;9.27;2.53;;;16.50;99.90;;;;;;5129229;27;20092;-58
2023/10/09 15:26:57;;;;;;;10.82;2.70;;;16.50;99.90;;;;;;5129704;27;20470;-58
2023/10/09 15:29:28;;;;;;;9.02;3.17;;;16.50;99.90;;;;;;5129884;27;20055;-58
2023/10/09 15:32:04;;;;;;;9.25;2.47;;;16.40;99.90;;;;;;5129064;27;20062;-58
2023/10/09 15:34:36;;;;;;;13.15;3.00;;;16.30;99.90;;;;;;5129594;27;20160;-58
2023/10/09 15:37:03;;;;;;;14.75;3.72;;;16.40;99.90;;;;;;5128666;27;20050;-58
2023/10/09 15:39:30;;;;;;;8.75;2.10;;;16.30;99.90;;;;;;5111912;27;20039;-58
2023/10/09 15:41:56;;;;;;;12.85;2.92;;;16.30;99.90;;;;;;5129349;27;20056;-59
2023/10/09 15:44:24;;;;;;;10.35;3.55;;;16.30;99.90;;;;;;5111305;27;20062;-59
2023/10/09 15:46:53;;;;;;;11.38;2.50;;;16.30;99.90;;;;;;5130038;27;20127;-59
2023/10/09 15:49:19;;;;;;;10.63;2.70;;;16.30;99.90;;;;;;5128668;27;20091;-59
2023/10/09 15:51:47;;;;;;;9.35;2.30;;;16.30;99.90;;;;;;5127046;27;20043;-58
2023/10/09 15:54:16;;;;;;;7.80;2.20;;;16.30;99.90;;;;;;5128207;27;20064;-58
2023/10/09 15:56:41;;;;;;;9.73;2.13;;;16.30;99.90;;;;;;5129786;27;20050;-59